createdAt,value
2023-03-05T00:01:22.683Z,2.26
2023-03-05T00:03:56.352Z,2.28
2023-03-05T00:06:30.293Z,2.26
2023-03-05T00:09:03.393Z,2.20
2023-03-05T00:11:36.030Z,2.23
2023-03-05T00:14:11.102Z,2.23
2023-03-05T00:16:43.949Z,2.20
2023-03-05T00:19:16.201Z,2.18
2023-03-05T00:21:48.077Z,2.21
2023-03-05T00:24:23.168Z,2.24
2023-03-05T00:26:55.946Z,2.25
2023-03-05T00:29:29.113Z,2.23
2023-03-05T00:32:02.449Z,2.30
2023-03-05T00:34:34.154Z,2.29
2023-03-05T00:37:06.147Z,2.30
2023-03-05T00:39:39.321Z,2.29
2023-03-05T00:42:11.985Z,2.22
2023-03-05T00:44:43.845Z,2.21
2023-03-05T00:47:18.284Z,2.23
2023-03-05T00:49:50.721Z,2.27
2023-03-05T00:52:22.538Z,2.23
2023-03-05T00:54:55.620Z,2.21
2023-03-05T00:57:27.474Z,2.17
2023-03-05T00:59:59.349Z,2.15
2023-03-05T01:02:33.207Z,2.22
2023-03-05T01:05:06.152Z,2.22
2023-03-05T01:07:39.531Z,2.04
2023-03-05T01:10:14.311Z,2.03
2023-03-05T01:12:46.225Z,2.07
2023-03-05T01:15:17.989Z,2.14
2023-03-05T01:17:49.879Z,2.12
2023-03-05T01:20:24.591Z,2.07
2023-03-05T01:22:58.873Z,2.02
2023-03-05T01:25:31.913Z,2.03
2023-03-05T01:28:04.015Z,1.95
2023-03-05T01:30:36.136Z,1.97
2023-03-05T01:33:07.867Z,1.96
2023-03-05T01:35:39.753Z,1.97
2023-03-05T01:38:11.578Z,1.96
2023-03-05T01:40:45.342Z,1.95
2023-03-05T01:43:29.846Z,2.03
2023-03-05T01:46:35.294Z,2.03
2023-03-05T01:49:30.397Z,2.05
2023-03-05T01:52:07.949Z,2.03
2023-03-05T01:54:45.048Z,2.04
2023-03-05T01:57:26.836Z,2.03
2023-03-05T02:00:06.725Z,2.04
2023-03-05T02:02:38.565Z,2.02
2023-03-05T02:05:17.323Z,1.99
2023-03-05T02:07:49.837Z,2.01
2023-03-05T02:10:24.468Z,2.04
2023-03-05T02:13:01.489Z,1.99
2023-03-05T02:15:35.351Z,2.03
2023-03-05T02:18:09.129Z,1.99
2023-03-05T02:20:51.701Z,1.99
2023-03-05T02:23:27.484Z,2.01
2023-03-05T02:26:00.682Z,2.01
2023-03-05T02:28:37.443Z,1.98
2023-03-05T02:31:18.299Z,1.99
2023-03-05T02:33:52.324Z,2.00
2023-03-05T02:36:25.318Z,1.98
2023-03-05T02:38:59.139Z,2.03
2023-03-05T02:41:30.988Z,2.02
2023-03-05T02:44:02.788Z,2.04
2023-03-05T02:46:34.749Z,2.01
2023-03-05T02:49:06.677Z,2.06
2023-03-05T02:51:38.582Z,2.03
2023-03-05T02:54:11.520Z,2.02
2023-03-05T02:56:43.559Z,1.94
2023-03-05T02:59:15.197Z,1.95
2023-03-05T03:01:46.985Z,1.93
2023-03-05T03:04:18.784Z,1.93
2023-03-05T03:06:50.731Z,1.99
2023-03-05T03:09:23.920Z,2.01
2023-03-05T03:11:55.793Z,1.95
2023-03-05T03:14:27.518Z,1.95
2023-03-05T03:16:59.489Z,1.93
2023-03-05T03:19:31.330Z,1.90
2023-03-05T03:22:03.277Z,1.95
2023-03-05T03:24:37.631Z,1.89
2023-03-05T03:27:11.386Z,1.97
2023-03-05T03:29:42.979Z,1.92
2023-03-05T03:32:14.882Z,1.87
2023-03-05T03:34:48.032Z,1.88
2023-03-05T03:37:19.756Z,1.87
2023-03-05T03:39:53.046Z,1.91
2023-03-05T03:42:26.773Z,1.88
2023-03-05T03:45:00.390Z,1.86
2023-03-05T03:47:32.222Z,1.88
2023-03-05T03:50:04.397Z,1.84
2023-03-05T03:52:36.290Z,1.82
2023-03-05T03:55:11.248Z,1.83
2023-03-05T03:57:43.486Z,1.79
2023-03-05T04:00:18.140Z,1.80
2023-03-05T04:02:50.134Z,1.81
2023-03-05T04:05:21.960Z,1.75
2023-03-05T04:07:53.829Z,1.83
2023-03-05T04:10:27.116Z,1.81
2023-03-05T04:12:58.826Z,1.82
2023-03-05T04:15:30.685Z,1.80
2023-03-05T04:18:02.709Z,1.78
2023-03-05T04:20:34.565Z,1.81
2023-03-05T04:23:06.496Z,1.84
2023-03-05T04:25:39.797Z,1.88
2023-03-05T04:28:11.862Z,1.92
2023-03-05T04:30:43.480Z,1.87
2023-03-05T04:33:15.657Z,1.83
2023-03-05T04:35:47.540Z,1.85
2023-03-05T04:38:19.402Z,1.82
2023-03-05T04:40:52.658Z,1.82
2023-03-05T04:43:24.557Z,1.82
2023-03-05T04:45:57.913Z,1.86
2023-03-05T04:48:29.777Z,1.77
2023-03-05T04:51:01.686Z,1.81
2023-03-05T04:53:33.575Z,1.83
2023-03-05T04:56:06.596Z,1.80
2023-03-05T04:58:38.443Z,1.79
2023-03-05T05:01:10.752Z,1.80
2023-03-05T05:03:42.552Z,1.77
2023-03-05T05:06:14.385Z,1.77
2023-03-05T05:08:46.212Z,1.77
2023-03-05T05:11:20.109Z,1.76
2023-03-05T05:13:51.950Z,1.80
2023-03-05T05:16:23.870Z,1.77
2023-03-05T05:18:55.694Z,1.75
2023-03-05T05:21:27.621Z,1.76
2023-03-05T05:23:59.425Z,1.78
2023-03-05T05:26:33.504Z,1.82
2023-03-05T05:29:05.515Z,1.81
2023-03-05T05:31:37.548Z,1.84
2023-03-05T05:34:09.195Z,1.83
2023-03-05T05:36:41.023Z,1.82
2023-03-05T05:39:12.830Z,1.80
2023-03-05T05:41:46.062Z,1.81
2023-03-05T05:44:18.042Z,1.81
2023-03-05T05:46:49.971Z,1.78
2023-03-05T05:49:21.695Z,1.78
2023-03-05T05:51:53.489Z,1.75
2023-03-05T05:54:25.358Z,1.77
2023-03-05T05:56:58.671Z,1.77
2023-03-05T05:59:30.792Z,1.75
2023-03-05T06:02:02.499Z,1.76
2023-03-05T06:04:34.341Z,1.74
2023-03-05T06:07:07.357Z,1.76
2023-03-05T06:09:40.212Z,1.77
2023-03-05T06:12:13.697Z,1.78
2023-03-05T06:14:45.484Z,1.80
2023-03-05T06:17:28.737Z,1.81
2023-03-05T06:20:01.934Z,1.85
2023-03-05T06:22:36.486Z,1.82
2023-03-05T06:25:09.953Z,1.83
2023-03-05T06:27:42.998Z,1.84
2023-03-05T06:30:16.977Z,1.80
2023-03-05T06:32:48.904Z,1.81
2023-03-05T06:35:21.984Z,1.81
2023-03-05T06:37:53.565Z,1.84
2023-03-05T06:40:25.498Z,1.85
2023-03-05T06:42:58.582Z,1.82
2023-03-05T06:45:30.438Z,1.83
2023-03-05T06:48:02.269Z,1.88
2023-03-05T06:50:37.459Z,1.86
2023-03-05T06:53:09.608Z,1.89
2023-03-05T06:55:41.994Z,1.95
2023-03-05T06:58:15.144Z,1.90
2023-03-05T07:00:47.189Z,1.88
2023-03-05T07:03:18.922Z,1.91
2023-03-05T07:05:50.721Z,1.93
2023-03-05T07:08:22.544Z,1.96
2023-03-05T07:10:54.407Z,1.96
2023-03-05T07:13:28.053Z,1.92
2023-03-05T07:15:59.924Z,1.96
2023-03-05T07:18:31.774Z,1.97
2023-03-05T07:21:07.156Z,1.96
2023-03-05T07:23:39.926Z,1.98
2023-03-05T07:26:14.558Z,2.01
2023-03-05T07:28:48.365Z,2.01
2023-03-05T07:31:26.992Z,2.05
2023-03-05T07:33:59.284Z,2.08
2023-03-05T07:36:34.738Z,2.14
2023-03-05T07:39:07.464Z,2.18
2023-03-05T07:41:39.677Z,2.20
2023-03-05T07:44:12.652Z,2.18
2023-03-05T07:46:45.035Z,2.17
2023-03-05T07:49:17.035Z,2.15
2023-03-05T07:51:48.618Z,2.26
2023-03-05T07:54:20.543Z,2.28
2023-03-05T07:56:52.483Z,2.29
2023-03-05T07:59:25.410Z,2.21
2023-03-05T08:01:57.276Z,2.23
2023-03-05T08:04:31.763Z,2.24
2023-03-05T08:07:03.711Z,2.25
2023-03-05T08:09:35.798Z,2.15
2023-03-05T08:12:07.473Z,2.03
2023-03-05T08:14:40.633Z,2.01
2023-03-05T08:17:12.521Z,2.06
2023-03-05T08:19:44.329Z,2.09
2023-03-05T08:22:17.369Z,2.09
2023-03-05T08:24:50.413Z,2.12
2023-03-05T08:27:22.037Z,2.15
2023-03-05T08:29:54.951Z,2.22
2023-03-05T08:32:26.692Z,2.21
2023-03-05T08:35:02.839Z,2.31
2023-03-05T08:37:35.450Z,2.33
2023-03-05T08:40:08.494Z,2.32
2023-03-05T08:42:40.385Z,2.36
2023-03-05T08:45:16.201Z,2.35
2023-03-05T08:47:48.031Z,2.37
2023-03-05T08:50:22.184Z,2.38
2023-03-05T08:52:56.040Z,2.39
2023-03-05T08:55:29.570Z,2.44
2023-03-05T08:58:01.433Z,2.46
2023-03-05T09:00:34.347Z,2.48
2023-03-05T09:03:07.843Z,2.47
2023-03-05T09:05:41.045Z,2.49
2023-03-05T09:08:13.269Z,2.47
2023-03-05T09:10:46.643Z,2.54
2023-03-05T09:13:20.134Z,2.62
2023-03-05T09:16:01.826Z,2.67
2023-03-05T09:18:36.638Z,2.71
2023-03-05T09:21:11.853Z,2.64
2023-03-05T09:23:45.032Z,2.65
2023-03-05T09:26:19.249Z,2.67
2023-03-05T09:28:51.698Z,2.72
2023-03-05T09:31:24.955Z,2.72
2023-03-05T09:33:56.860Z,2.72
2023-03-05T09:36:31.727Z,2.75
2023-03-05T09:39:06.901Z,2.80
2023-03-05T09:41:55.423Z,2.81
2023-03-05T09:44:37.801Z,2.89
2023-03-05T09:47:27.744Z,2.89
2023-03-05T09:50:12.029Z,2.96
2023-03-05T09:52:53.049Z,3.06
2023-03-05T09:55:34.448Z,2.99
2023-03-05T09:58:15.808Z,3.02
2023-03-05T10:00:55.619Z,3.08
2023-03-05T10:03:40.360Z,3.10
2023-03-05T10:06:23.392Z,3.11
2023-03-05T10:09:04.917Z,3.10
2023-03-05T10:11:46.140Z,3.10
2023-03-05T10:14:26.485Z,3.19
2023-03-05T10:17:12.073Z,3.24
2023-03-05T10:20:12.199Z,3.35
2023-03-05T10:23:04.205Z,3.36
2023-03-05T10:25:55.636Z,3.37
2023-03-05T10:28:35.677Z,3.40
2023-03-05T10:31:28.937Z,3.39
2023-03-05T10:34:25.443Z,3.40
2023-03-05T10:37:21.538Z,3.54
2023-03-05T10:40:21.321Z,3.65
2023-03-05T10:43:05.918Z,3.58
2023-03-05T10:45:44.207Z,3.60
2023-03-05T10:48:28.870Z,3.50
2023-03-05T10:51:05.816Z,3.50
2023-03-05T10:53:56.811Z,3.56
2023-03-05T10:56:32.819Z,3.63
2023-03-05T10:59:06.060Z,3.65
2023-03-05T11:01:38.008Z,3.72
2023-03-05T11:04:26.253Z,3.76
2023-03-05T11:06:58.125Z,3.76
2023-03-05T11:09:32.822Z,3.81
2023-03-05T11:12:12.562Z,3.84
2023-03-05T11:14:47.784Z,3.87
2023-03-05T11:17:34.509Z,3.89
2023-03-05T11:20:37.691Z,3.90
2023-03-05T11:23:19.167Z,4.01
2023-03-05T11:26:03.413Z,4.01
2023-03-05T11:28:37.842Z,4.03
2023-03-05T11:31:24.255Z,4.01
2023-03-05T11:34:23.310Z,4.08
2023-03-05T11:37:06.175Z,4.15
2023-03-05T11:39:42.239Z,4.22
2023-03-05T11:42:25.033Z,4.20
2023-03-05T11:44:59.732Z,4.15
2023-03-05T11:47:45.009Z,4.09
2023-03-05T11:50:28.578Z,4.08
2023-03-05T11:53:04.540Z,4.04
2023-03-05T11:55:45.729Z,4.00
2023-03-05T11:58:33.625Z,3.94
2023-03-05T12:01:08.136Z,3.97
2023-03-05T12:03:42.924Z,4.01
2023-03-05T12:06:24.415Z,4.01
2023-03-05T12:09:01.736Z,4.09
2023-03-05T12:11:37.295Z,4.01
2023-03-05T12:14:25.495Z,4.23
2023-03-05T12:17:07.830Z,4.52
2023-03-05T12:19:51.938Z,4.87
2023-03-05T12:22:26.254Z,4.84
2023-03-05T12:25:25.249Z,4.73
2023-03-05T12:27:57.307Z,4.69
2023-03-05T12:31:00.984Z,4.63
2023-03-05T12:33:36.490Z,4.58
2023-03-05T12:36:40.256Z,4.46
2023-03-05T12:39:52.557Z,4.42
2023-03-05T12:42:53.745Z,4.42
2023-03-05T12:45:46.531Z,4.44
2023-03-05T12:48:46.156Z,4.41
2023-03-05T12:51:40.111Z,4.47
2023-03-05T12:54:31.810Z,4.62
2023-03-05T12:57:07.661Z,4.73
2023-03-05T12:59:49.772Z,4.80
2023-03-05T13:02:35.134Z,4.82
2023-03-05T13:05:18.699Z,4.82
2023-03-05T13:07:51.139Z,4.80
2023-03-05T13:10:28.514Z,4.80
2023-03-05T13:13:02.622Z,4.85
2023-03-05T13:15:36.536Z,4.89
2023-03-05T13:18:20.316Z,4.88
2023-03-05T13:21:02.505Z,4.90
2023-03-05T13:23:37.508Z,4.88
2023-03-05T13:26:21.502Z,4.82
2023-03-05T13:29:17.666Z,4.63
2023-03-05T13:31:57.813Z,4.58
2023-03-05T13:34:46.210Z,4.88
2023-03-05T13:37:26.219Z,5.23
2023-03-05T13:40:04.894Z,5.42
2023-03-05T13:42:38.834Z,5.71
2023-03-05T13:45:24.829Z,6.05
2023-03-05T13:48:26.174Z,6.09
2023-03-05T13:51:06.805Z,6.00
2023-03-05T13:53:39.270Z,5.67
2023-03-05T13:56:17.172Z,5.48
2023-03-05T13:58:52.385Z,5.40
2023-03-05T14:01:41.422Z,5.15
2023-03-05T14:04:23.746Z,5.08
2023-03-05T14:07:00.877Z,5.16
2023-03-05T14:09:45.914Z,5.08
2023-03-05T14:12:31.366Z,5.10
2023-03-05T14:15:07.245Z,4.98
2023-03-05T14:17:52.644Z,5.03
2023-03-05T14:20:31.921Z,5.04
2023-03-05T14:23:27.028Z,5.02
2023-03-05T14:26:24.183Z,5.08
2023-03-05T14:28:57.525Z,5.29
2023-03-05T14:31:35.278Z,5.30
2023-03-05T14:34:19.403Z,5.25
2023-03-05T14:36:54.574Z,5.15
2023-03-05T14:39:46.772Z,5.11
2023-03-05T14:42:34.989Z,5.15
2023-03-05T14:45:18.304Z,5.18
2023-03-05T14:47:54.296Z,5.15
2023-03-05T14:50:33.183Z,5.18
2023-03-05T14:53:15.730Z,5.20
2023-03-05T14:55:53.736Z,5.15
2023-03-05T14:58:29.354Z,5.08
2023-03-05T15:01:02.756Z,5.08
2023-03-05T15:03:34.489Z,5.04
2023-03-05T15:06:07.139Z,5.04
2023-03-05T15:08:39.180Z,5.03
2023-03-05T15:11:12.729Z,5.02
2023-03-05T15:13:44.394Z,5.03
2023-03-05T15:16:20.941Z,5.04
2023-03-05T15:18:53.197Z,4.99
2023-03-05T15:21:25.077Z,5.01
2023-03-05T15:23:57.053Z,5.05
2023-03-05T15:26:30.475Z,5.09
2023-03-05T15:29:02.360Z,5.07
2023-03-05T15:31:38.657Z,5.09
2023-03-05T15:34:11.075Z,5.09
2023-03-05T15:36:43.008Z,5.08
2023-03-05T15:39:14.998Z,5.06
2023-03-05T15:41:48.864Z,5.04
2023-03-05T15:44:23.841Z,5.04
2023-03-05T15:46:56.908Z,4.98
2023-03-05T15:49:29.046Z,5.01
2023-03-05T15:52:01.077Z,4.96
2023-03-05T15:54:32.968Z,4.96
2023-03-05T15:57:09.239Z,4.93
2023-03-05T15:59:42.377Z,4.89
2023-03-05T16:02:18.864Z,4.80
2023-03-05T16:05:09.393Z,4.75
2023-03-05T16:07:50.238Z,4.73
2023-03-05T16:10:47.417Z,4.75
2023-03-05T16:13:30.012Z,4.74
2023-03-05T16:16:12.043Z,4.66
2023-03-05T16:18:46.982Z,4.69
2023-03-05T16:21:19.785Z,4.72
2023-03-05T16:23:51.556Z,4.69
2023-03-05T16:26:24.636Z,4.70
2023-03-05T16:28:57.869Z,4.66
2023-03-05T16:31:32.522Z,4.66
2023-03-05T16:34:05.359Z,4.63
2023-03-05T16:36:38.022Z,4.62
2023-03-05T16:39:09.930Z,4.58
2023-03-05T16:41:41.899Z,4.62
2023-03-05T16:44:15.469Z,4.60
2023-03-05T16:46:49.237Z,4.58
2023-03-05T16:49:22.751Z,4.52
2023-03-05T16:51:54.901Z,4.57
2023-03-05T16:54:26.636Z,4.54
2023-03-05T16:59:33.215Z,4.38
2023-03-05T17:02:05.212Z,4.45
2023-03-05T17:04:38.059Z,4.44
2023-03-05T17:07:12.153Z,4.45
2023-03-05T17:09:44.476Z,4.39
2023-03-05T17:12:17.576Z,4.37
2023-03-05T17:14:50.615Z,4.34
2023-03-05T17:17:22.642Z,4.24
2023-03-05T17:19:54.789Z,4.23
2023-03-05T17:22:26.673Z,4.17
2023-03-05T17:24:58.680Z,4.20
2023-03-05T17:27:30.635Z,4.22
2023-03-05T17:30:04.390Z,4.23
2023-03-05T17:32:36.491Z,4.23
2023-03-05T17:35:16.919Z,4.20
2023-03-05T17:37:48.637Z,4.23
2023-03-05T17:40:20.834Z,4.14
2023-03-05T17:42:52.837Z,4.11
2023-03-05T17:45:26.683Z,4.14
2023-03-05T17:47:58.891Z,4.10
2023-03-05T17:50:31.582Z,4.03
2023-03-05T17:53:04.922Z,4.09
2023-03-05T17:55:44.452Z,4.07
2023-03-05T17:58:22.040Z,4.08
2023-03-05T18:01:04.724Z,4.07
2023-03-05T18:03:43.713Z,3.99
2023-03-05T18:06:19.172Z,4.02
2023-03-05T18:08:56.150Z,4.03
2023-03-05T18:11:39.716Z,4.00
2023-03-05T18:14:21.077Z,4.02
2023-03-05T18:16:54.752Z,4.04
2023-03-05T18:19:26.575Z,4.03
2023-03-05T18:21:58.579Z,4.01
2023-03-05T18:24:30.674Z,3.92
2023-03-05T18:27:02.565Z,3.89
2023-03-05T18:29:34.501Z,3.90
2023-03-05T18:32:07.595Z,3.87
2023-03-05T18:34:39.629Z,3.84
2023-03-05T18:37:11.377Z,3.83
2023-03-05T18:39:43.337Z,3.82
2023-03-05T18:42:17.910Z,3.82
2023-03-05T18:44:50.010Z,3.82
2023-03-05T18:47:23.373Z,3.78
2023-03-05T18:49:56.382Z,3.78
2023-03-05T18:52:28.456Z,3.80
2023-03-05T18:55:01.189Z,3.76
2023-03-05T18:57:33.242Z,3.76
2023-03-05T19:00:05.292Z,3.76
2023-03-05T19:02:38.941Z,3.76
2023-03-05T19:05:11.836Z,3.76
2023-03-05T19:07:43.651Z,3.75
2023-03-05T19:10:17.774Z,3.77
2023-03-05T19:12:56.849Z,3.79
2023-03-05T19:15:29.162Z,3.73
2023-03-05T19:18:02.675Z,3.71
2023-03-05T19:20:34.846Z,3.69
2023-03-05T19:23:06.773Z,3.68
2023-03-05T19:25:41.146Z,3.68
2023-03-05T19:28:15.215Z,3.64
2023-03-05T19:30:48.638Z,3.65
2023-03-05T19:33:24.090Z,3.63
2023-03-05T19:35:57.504Z,3.60
2023-03-05T19:38:29.438Z,3.62
2023-03-05T19:41:06.397Z,3.63
2023-03-05T19:43:38.641Z,3.60
2023-03-05T19:46:12.239Z,3.57
2023-03-05T19:48:45.671Z,3.55
2023-03-05T19:51:21.054Z,3.56
2023-03-05T19:53:54.295Z,3.55
2023-03-05T19:56:26.979Z,3.51
2023-03-05T19:58:58.906Z,3.50
2023-03-05T20:01:43.066Z,3.52
2023-03-05T20:04:23.465Z,3.46
2023-03-05T20:07:03.969Z,3.44
2023-03-05T20:09:38.196Z,3.43
2023-03-05T20:15:06.833Z,3.40
2023-03-05T20:17:49.130Z,3.37
2023-03-05T20:20:25.701Z,3.39
2023-03-05T20:23:09.121Z,3.40
2023-03-05T20:25:42.909Z,3.38
2023-03-05T20:28:17.955Z,3.38
2023-03-05T20:30:56.976Z,3.39
2023-03-05T20:33:31.553Z,3.41
2023-03-05T20:36:06.353Z,3.38
2023-03-05T20:38:39.507Z,3.38
2023-03-05T20:41:16.610Z,3.34
2023-03-05T20:43:51.872Z,3.37
2023-03-05T20:46:29.783Z,3.31
2023-03-05T20:49:05.302Z,3.31
2023-03-05T20:51:41.333Z,3.27
2023-03-05T20:54:16.562Z,3.28
2023-03-05T20:56:48.805Z,3.26
2023-03-05T20:59:23.312Z,3.27
2023-03-05T21:01:55.512Z,3.25
2023-03-05T21:04:27.443Z,3.24
2023-03-05T21:07:00.941Z,3.25
2023-03-05T21:09:33.007Z,3.26
2023-03-05T21:12:05.677Z,3.27
2023-03-05T21:14:40.551Z,3.24
2023-03-05T21:17:13.105Z,3.21
2023-03-05T21:19:45.136Z,3.20
2023-03-05T21:22:18.395Z,3.21
2023-03-05T21:25:02.062Z,3.18
2023-03-05T21:27:34.626Z,3.18
2023-03-05T21:30:07.708Z,3.21
2023-03-05T21:32:39.783Z,3.18
2023-03-05T21:35:18.936Z,3.18
2023-03-05T21:37:52.738Z,3.18
2023-03-05T21:40:25.188Z,3.17
2023-03-05T21:42:58.339Z,3.17
2023-03-05T21:45:32.584Z,3.14
2023-03-05T21:48:04.358Z,3.16
2023-03-05T21:50:36.298Z,3.16
2023-03-05T21:53:09.735Z,3.16
2023-03-05T21:55:47.989Z,3.16
2023-03-05T21:58:19.885Z,3.19
2023-03-05T22:00:51.965Z,3.17
2023-03-05T22:03:23.914Z,3.17
2023-03-05T22:05:55.914Z,3.16
2023-03-05T22:08:30.124Z,3.16
2023-03-05T22:11:02.112Z,3.13
2023-03-05T22:13:33.993Z,3.13
2023-03-05T22:16:09.116Z,3.11
2023-03-05T22:18:41.515Z,3.14
2023-03-05T22:21:23.416Z,3.12
2023-03-05T22:23:57.364Z,3.12
2023-03-05T22:26:34.436Z,3.12
2023-03-05T22:29:08.632Z,3.10
2023-03-05T22:31:41.630Z,3.10
2023-03-05T22:34:13.689Z,3.08
2023-03-05T22:36:45.591Z,3.08
2023-03-05T22:39:18.633Z,3.08
2023-03-05T22:41:50.563Z,3.06
2023-03-05T22:44:25.056Z,3.05
2023-03-05T22:46:56.803Z,3.04
2023-03-05T22:49:28.753Z,3.04
2023-03-05T22:52:00.747Z,3.01
2023-03-05T22:54:34.114Z,3.04
2023-03-05T22:57:06.136Z,2.99
2023-03-05T22:59:38.252Z,2.95
2023-03-05T23:02:10.931Z,2.97
2023-03-05T23:04:49.880Z,2.96
2023-03-05T23:07:25.093Z,2.94
2023-03-05T23:10:01.496Z,2.92
2023-03-05T23:12:36.541Z,2.92
2023-03-05T23:15:13.938Z,2.94
2023-03-05T23:17:46.097Z,2.94
2023-03-05T23:20:24.810Z,2.91
2023-03-05T23:22:59.343Z,2.92
2023-03-05T23:25:36.416Z,2.88
2023-03-05T23:28:09.142Z,2.85
2023-03-05T23:30:43.041Z,2.83
2023-03-05T23:33:20.570Z,2.86
2023-03-05T23:35:56.871Z,2.86
2023-03-05T23:38:31.211Z,2.85
2023-03-05T23:41:37.280Z,2.81
2023-03-05T23:44:09.195Z,2.79
2023-03-05T23:46:40.888Z,2.81
2023-03-05T23:49:12.640Z,2.78
2023-03-05T23:51:44.471Z,2.79
2023-03-05T23:54:16.334Z,2.77
2023-03-05T23:56:49.570Z,2.75
2023-03-05T23:59:21.448Z,2.75
